RJS weather

Rancho San Jose de Pedrero Airport
Teapa, Tabasco, Mexico

Public forecast

Using degrees Celsius for public forecast. Weather courtesy of forecast.io.

Closest aviation weather report (METAR) to Rancho San Jose de Pedrero Airport

Report is more than 2 hours old.

Closest report is Carlos Rovirosa Pérez International Airport, 18.4 nm (34.0 km) NNE. Retrieved 2019/12/11 02:43 UTC (5 hours ago):

MMVA 110243Z 08006KT 7SM SKC 23/23 A2994 RMK SLP136 52027 914

Closest aviation forecast (TAF) to Rancho San Jose de Pedrero Airport

Closest forecast is Carlos Rovirosa Pérez International Airport, 18.4 nm (34.0 km) NNE. Retrieved 2019/12/11 06:42 UTC (1 hour ago):

TAF MMVA 110531Z 1106/1206 08005KT 6SM HZ SKC FM111000 33010KT 5SM HZ BKN015 BKN060 TEMPO 1111/1115 2SM -RA BR BKN005 OVC010 FM111800 03010G20KT 6SM -RA BKN020 BKN050 TEMPO 1121/1201 4SM -RA BKN010 FM120300 33015KT 3SM -RA BKN010 OVC030